Tiempo atmosférico en la estación meteorológica de Puebla De Don Rodrigo, Ciudad Real (485 m.)



Fecha
DESCASC
Temp. máxima en grados centígrados (hora)
DESCASC
Temp. mínima en grados centígrados (hora)
DESCASC
Temp. media en grados centígrados
DESCASC
Racha de viento máxima en m/sg (hora)
DESCASC
Velocidad máxima media en intervalos de 10 minutos(hora)
DESCASC
Precipitaciones diarias en mm
DESCASC
Precipitaciones de 00:00 a 06:00 en mm
DESCASC
Precipitaciones de 06:00 a 12:00 en mm
DESCASC
Precipitaciones de 12:00 a 18:00 en mm
DESCASC
Precipitaciones de 18:00 a 24:00 en mm
DESCASC
22-04-2019 21.9 (17:50) 4.4 (06:20) 13.1 8.61 (17:00) 3.61 (18:10) -- 0 -- 0.1 0
21-04-2019 15.3 (12:50) 8.2 (05:40) 11.8 10.28 (12:20) 6.39 (12:20) 0 0 0 0 0
20-04-2019 12.9 (16:20) 7.6 (03:10) 10.2 8.33 (18:50) 3.61 (21:40) 13.7 3.8 4 4.1 1.8
19-04-2019 15.8 (15:50) 7.9 (23:20) 11.9 9.72 (17:10) 5 (17:20) 2.9 0.2 0.6 2.1 0
18-04-2019 17.6 (14:10) 9 (00:00) 13.3 8.06 (18:10) 4.17 (18:00) 3.4 1.2 0 0.1 2.1
17-04-2019 22.3 (14:40) 7.3 (00:00) 14.8 11.67 (17:30) 6.67 (17:30) 0.7 0 0 0.3 0.4
16-04-2019 24.4 (17:40) 4 (00:00) 14.2 6.67 (17:40) 3.89 (21:30) 0.1 0 0 0.1 0
15-04-2019 25.8 (15:30) 7.9 (00:00) 16.8 11.11 (18:30) 5.28 (14:20) 0.1 0 0 0.1 0
14-04-2019 23 (17:40) 5.8 (00:00) 14.4 5.83 (17:20) 1.67 (18:40) 0 0 0 0 0
13-04-2019 23 (17:50) 2.2 (00:00) 12.6 11.39 (18:00) 3.33 (16:20) 0 0 0 0 0
12-04-2019 21.5 (16:30) 0.6 (00:00) 11.1 5.83 (19:50) 1.94 (13:50) 0.1 0 0 0 0.1
11-04-2019 19 (16:40) 0.7 (00:00) 9.8 6.11 (18:10) 1.94 (20:50) 0.1 0 0 0 0.1
10-04-2019 18.3 (16:10) 5.5 (00:00) 11.9 10.83 (20:20) 4.72 (20:20) 0.1 0 0 0 0.1
09-04-2019 15.4 (16:40) 6.6 (00:00) 11 11.39 (16:50) 5 (16:50) 5 0 4.2 0.8 0
08-04-2019 17.2 (17:20) 8.1 (00:00) 12.7 8.33 (18:50) 2.5 (19:00) 4 2 1.3 0.7 0
07-04-2019 12.4 (15:50) 5.8 (00:00) 9.1 7.78 (04:50) 2.5 (13:10) 4.2 1 0 0 3.2
06-04-2019 12.8 (14:40) 4.1 (00:00) 8.5 14.72 (12:40) 3.89 (13:20) 8.2 0.2 4.5 3.5 0
05-04-2019 11.5 (16:20) 4.1 (00:00) 7.8 11.11 (16:40) 4.72 (16:40) 6.1 0.6 3.9 1.5 0.1
04-04-2019 18.5 (17:10) -0.6 (-00:0) 8.9 7.78 (16:00) 3.33 (16:00) 0 0 0 0 0
03-04-2019 19.5 (15:30) 3.3 (00:00) 11.4 10 (13:50) 4.72 (13:50) 0 0 0 0 0
02-04-2019 20.9 (17:00) 6.7 (00:00) 13.8 7.22 (17:10) 2.22 (17:00) 0 0 0 0 0
01-04-2019 19.5 (17:30) 7.7 (00:00) 13.6 11.67 (20:00) 7.78 (19:50) 1.9 0 0 0.9 1
31-03-2019 19 (16:00) 7.7 (00:00) 13.3 8.06 (17:10) 5 (18:20) 0.6 0.4 0.2 0 0
30-03-2019 22.3 (16:40) 1.8 (00:00) 12 11.39 (20:50) 6.11 (20:50) 1.4 0 0 0.1 1.3
29-03-2019 21.1 (16:10) 1.2 (00:00) 11.2 6.39 (12:20) 3.33 (12:40) 0 0 0 0 0
28-03-2019 -- (--) -- (--) -- 10 (11:20) 5.56 (14:30) 0 0 0 0 0
27-03-2019 18.7 (16:10) 5.8 (00:00) 12.3 13.33 (14:50) 8.33 (14:50) 0 0 0 0 0
26-03-2019 22.6 (15:00) 5.6 (00:00) 14.1 13.89 (15:30) 9.44 (15:50) 0 0 0 0 0
25-03-2019 22.7 (16:20) 1.5 (00:00) 12.1 11.67 (12:40) 5.83 (12:40) 0 0 0 0 0

Gráficas

Temp. máximas Temp. mínimas Temp. medias Precipitaciones Rachas de viento máximas Velocidades máximas media en intervalos de 10 minutos

Datos horarios

Fecha y hora oficial Temperatura (ºC) Velocidad del viento (km/h) Dirección del viento Racha (km/h) Dirección de racha Precipitación (mm) Presión (hPa) Tendencia (hPa) Humedad (%)
2019-04-23 23:00:00 6.9 12 Sudoeste 24 Sudoeste 0 943.5 2.8 65
2019-04-23 22:00:00 6.9 7 Sudoeste 26 Sudoeste 0 942.8 2.5 62
2019-04-23 21:00:00 7.1 4 Oeste 40 Oeste 0 941.8 1.9 62
2019-04-23 20:00:00 8.9 15 Oeste 34 Sudoeste 0 940.7 1.5 53
2019-04-23 19:00:00 10.8 7 Oeste 32 Oeste 0 940.3 1.1 53
2019-04-23 18:00:00 11.2 4 Oeste 37 Sudoeste 0 939.9 1.1 56
2019-04-23 17:00:00 13.4 14 Sudoeste 44 Sudoeste 0 939.2 0.5 41
2019-04-23 16:00:00 12.6 18 Sudoeste 42 Sudoeste 0 939.2 -0.1 45
2019-04-23 15:00:00 14.2 13 Sudoeste 37 Sudoeste 0 938.8 -0.6 37
2019-04-23 14:00:00 11.4 16 Sudoeste 34 Sudoeste 0 938.7 0.2 44
2019-04-23 13:00:00 12.3 10 Sudoeste 30 Oeste 0 939.3 1.3 46
2019-04-23 12:00:00 9.6 5 Oeste 26 Oeste 0 939.4 2 57
2019-04-23 11:00:00 8.6 4 Sudoeste 25 Oeste 0 938.5 1.1 74
2019-04-23 10:00:00 7.3 9 Oeste 28 Sudoeste 0 938 1.3 87
2019-04-23 09:00:00 7.4 0 Calma 14 Oeste 0.7 937.4 0.9 95
2019-04-23 08:00:00 7.7 2 Sudoeste 21 Noroeste 1.7 937.4 0.5 95
2019-04-23 07:00:00 8.4 4 Oeste 26 Sudoeste 1.9 936.7 -0.5 94
2019-04-23 06:00:00 9.8 11 Sur 30 Sur 1.2 936.5 -1.4 90
2019-04-23 05:00:00 10.6 2 Sur 17 Sudoeste 0.3 936.9 -1.5 90
2019-04-23 04:00:00 10.7 15 Sudoeste 33 Sudoeste 0.6 937.2 -1.3 89
2019-04-23 03:00:00 12.6 15 Sur 25 Sur 0 937.9 -0.9 52
2019-04-23 02:00:00 13 0 Calma 0 Calma 0 938.4 -0.4 47
2019-04-23 01:00:00 13.7 0 Calma 9 Sudoeste 0 938.5 0 40
2019-04-23 00:00:00 13.9 2 Sudoeste 11 Sudoeste 0 938.8 0.4 39
2019-04-22 23:00:00 14.7 4 Sudoeste 14 Sudoeste 0 938.8 0.3 34
2019-04-22 22:00:00 15.1 5 Sudoeste 17 Oeste 0 938.5 0 33
2019-04-22 21:00:00 16.7 7 Oeste 19 Oeste 0 938.4 -0.8 28
2019-04-22 20:00:00 17.9 7 Sudoeste 26 Oeste 0 938.5 -1.1 29
2019-04-22 19:00:00 19.1 9 Sudoeste 27 Sudoeste 0 938.5 -2 28
2019-04-22 18:00:00 21.3 9 Oeste 26 Oeste 0 939.2 -1.8 26
2019-04-22 17:00:00 20.7 12 Sudoeste 31 Sudoeste 0 939.6 -2.2 27
2019-04-22 16:00:00 19 4 Oeste 24 Sudoeste 0 940.5 -2.2 29
2019-04-22 15:00:00 18.8 10 Sudoeste 24 Oeste 0.1 941 -2.2 31
2019-04-22 14:00:00 18.5 2 Oeste 20 Sur 0 941.8 -1.9 31
2019-04-22 13:00:00 16.1 6 Oeste 18 Oeste 0 942.7 -1.2 34
2019-04-22 12:00:00 15.7 0 Calma -- -- -- 943.2 -0.5 36
2019-04-22 11:00:00 12.6 0 Calma 0 Calma 0 943.7 0.1 68
2019-04-22 10:00:00 8.2 0 Calma -- -- 0 943.9 0.5 92
2019-04-22 09:00:00 5.8 0 Calma -- -- 0 943.7 0 98
2019-04-22 08:00:00 4.9 0 Calma -- -- 0 943.6 -0.6 98
2019-04-22 07:00:00 5.4 0 Calma -- -- 0 943.4 -1.6 98
2019-04-22 06:00:00 5.4 0 Calma -- -- 0 943.7 -1.7 97
2019-04-22 05:00:00 5.9 0 Calma -- -- 0 944.2 -1.8 96
2019-04-22 04:00:00 7.1 0 Calma -- -- 0 945 -1.6 96
2019-04-22 03:00:00 7.4 0 Calma 0 Calma 0 945.4 -1.6 94
2019-04-22 02:00:00 8.2 0 Calma 0 Calma 0 946 -1 91
2019-04-22 01:00:00 9.3 0 Calma -- -- 0 946.6 -0.1 85
2019-04-22 00:00:00 9.8 0 Calma -- -- 0 947 0.4 82
2019-04-21 23:00:00 9.9 0 Calma 5 Este 0 947 0.2 79
2019-04-21 22:00:00 10.4 0 Calma 4 Sudeste 0 946.7 -0.1 73
2019-04-21 21:00:00 11.2 4 Sudeste 14 Sudeste 0 946.6 -0.5 63
2019-04-21 20:00:00 12.9 0 Calma 13 Este 0 946.8 -0.6 50
2019-04-21 19:00:00 13.2 6 Este 16 Nordeste 0 946.8 -1 47
2019-04-21 18:00:00 13.1 12 Nordeste 18 Nordeste 0 947.1 -0.7 44
2019-04-21 17:00:00 13.3 2 Nordeste 19 Este 0 947.4 -0.8 43
2019-04-21 16:00:00 13.4 13 Este 27 Este 0 947.8 -0.9 41
2019-04-21 15:00:00 14.6 15 Este 28 Nordeste 0 947.8 -1.5 41
2019-04-21 14:00:00 13.9 9 Este 32 Este 0 948.2 -1.2 43
2019-04-21 13:00:00 14.2 15 Nordeste 37 Nordeste 0 948.7 -0.6 42
2019-04-21 12:00:00 13.3 18 Nordeste 28 Nordeste 0 949.3 -0.4 50
2019-04-21 11:00:00 11.9 8 Nordeste 27 Nordeste 0 949.4 -0.8 57
2019-04-21 10:00:00 11 14 Nordeste 29 Nordeste 0 949.3 -1.1 62
2019-04-21 09:00:00 9.7 5 Nordeste 23 Nordeste 0 949.7 -0.9 66
2019-04-21 08:00:00 8.5 0 Calma -- -- 0 950.2 -1 69
2019-04-21 07:00:00 8.4 0 Calma -- -- 0 950.4 -1.1 68
2019-04-21 06:00:00 8.3 0 Calma -- -- 0 950.6 -1.8 66
2019-04-21 05:00:00 8.6 0 Calma 4 Sudeste 0 951.2 -2.1 65
2019-04-21 04:00:00 9 0 Calma 14 Sudeste 0 951.5 -2.2 65
2019-04-21 03:00:00 9.5 0 Calma 12 Nordeste 0 952.4 -2.1 65
2019-04-21 02:00:00 9.7 0 Calma 15 Nordeste 0 953.3 -1.3 64
2019-04-21 01:00:00 9.5 5 Este 24 Este 0 953.7 -- 65
2019-04-21 00:00:00 9.5 0 Calma 18 Nordeste 0 954.5 0.2 66
2019-04-20 23:00:00 10 0 Calma 14 Este 0 954.6 0.5 70
2019-04-20 22:00:00 -- 0 Calma 25 Este 0 -- -- --
2019-04-20 21:00:00 9.4 0 Calma 22 Sudeste 0.2 954.3 0.6 85
2019-04-20 20:00:00 9.7 0 Calma 15 Este 0.8 954.1 0.3 87
2019-04-20 19:00:00 10 6 Este 30 Nordeste 0.8 954.3 0.6 87
2019-04-20 18:00:00 10.3 0 Calma 18 Sudeste 0.7 953.7 0 85
2019-04-20 17:00:00 12.2 0 Calma 19 Sudeste 0 953.8 0.3 74
2019-04-20 16:00:00 11.9 0 Calma 16 Sudeste 0 953.7 -0.3 78
2019-04-20 15:00:00 11.2 0 Calma 12 Este 0.1 953.7 0 83
2019-04-20 14:00:00 10.6 0 Calma -- -- 1.7 953.5 0.5 88
2019-04-20 13:00:00 10.1 0 Calma 17 Sudeste 1.6 954 1 90
2019-04-20 12:00:00 9.9 0 Calma -- -- 1.7 953.7 0.9 87
2019-04-20 11:00:00 10.1 0 Calma -- -- 1.4 953 0.3 84
2019-04-20 10:00:00 10 0 Calma 10 Nordeste 0.6 953 0.5 81
2019-04-20 09:00:00 9.7 0 Calma 0 Calma 0.1 952.8 -0.5 83
2019-04-20 08:00:00 8.9 0 Calma -- -- 0 952.7 -1.5 95
2019-04-20 07:00:00 8.8 0 Calma 14 Nordeste 0.2 952.5 -1.2 92
2019-04-20 06:00:00 8.8 0 Calma -- -- 2.3 953.3 -2 94
2019-04-20 05:00:00 8.7 0 Calma 0 Calma 1.5 954.2 -1.3 92
2019-04-20 04:00:00 9.6 0 Calma -- -- 0 953.7 -2.2 78
2019-04-20 03:00:00 7.7 0 Calma -- -- 0 955.3 -0.6 90
2019-04-20 02:00:00 8 0 Calma -- -- 0 955.5 -0.5 85
2019-04-20 01:00:00 8 0 Calma -- -- 0 955.9 0.4 85
2019-04-20 00:00:00 8.4 0 Calma 16 Sudeste 0 955.9 1.6 80
2019-04-19 23:00:00 8.2 0 Calma 15 Sudeste 0 956 2 78
2019-04-19 22:00:00 9 0 Calma 18 Este 0 955.5 2 74
2019-04-19 21:00:00 9.9 7 Este 24 Sudeste 0 954.3 1.2 71
2019-04-19 20:00:00 10.1 0 Calma 22 Nordeste 0 954 1.3 70
2019-04-19 19:00:00 10.6 13 Este 30 Este 0 953.5 0.7 69
2019-04-19 18:00:00 11.6 9 Nordeste 35 Nordeste 1.7 953.1 0.3 76
2019-04-19 17:00:00 12.8 3 Norte 25 Nordeste 0.2 952.7 -0.3 66
2019-04-19 16:00:00 14.8 0 Calma 8 Este 0 952.8 -0.5 51
2019-04-19 15:00:00 14.1 0 Calma 8 Nordeste 0.2 952.8 -0.7 51
2019-04-19 14:00:00 11.8 2 Nordeste 12 Este 0 953 -0.3 73
2019-04-19 13:00:00 14.5 0 Calma -- -- 0 953.3 0.1 56
2019-04-19 12:00:00 12.6 0 Calma -- -- 0.1 953.5 0.8 69
2019-04-19 11:00:00 10.4 0 Calma -- -- 0.2 953.3 1.3 88
2019-04-19 10:00:00 9.3 0 Calma -- -- 0.1 953.2 1.7 92
2019-04-19 09:00:00 9 0 Calma -- -- 0.1 952.7 1.3 92
2019-04-19 08:00:00 8.7 0 Calma -- -- 0.1 952 0.5 95
2019-04-19 07:00:00 8.8 0 Calma -- -- 0 951.5 0.1 95
2019-04-19 06:00:00 8.5 0 Calma -- -- 0 951.4 -0.1 95
2019-04-19 05:00:00 8.5 0 Calma 0 Calma 0 951.5 -0.2 94
2019-04-19 04:00:00 8.7 0 Calma 0 Calma 0 951.4 -0.3 92
2019-04-19 03:00:00 9.1 0 Calma -- -- 0 951.5 -0.2 92
2019-04-19 02:00:00 8.9 0 Calma -- -- 0.1 951.7 0.2 95
2019-04-19 01:00:00 9.6 0 Calma -- -- 0.1 951.7 0.7 95
2019-04-19 00:00:00 9.7 0 Calma -- -- 0 951.7 1.3 96
2019-04-18 23:00:00 9.6 0 Calma -- -- 0 951.5 1.4 96
2019-04-18 22:00:00 9.9 0 Calma -- -- 0.1 951 1 94
2019-04-18 21:00:00 10 0 Calma -- -- 0.4 950.4 0.8 94
2019-04-18 20:00:00 10.1 0 Calma -- -- 1.1 950.1 1.2 92
2019-04-18 19:00:00 10.1 0 Calma 29 Sudoeste 0.5 950 0.6 88
2019-04-18 18:00:00 11.3 15 Sudoeste 24 Sudoeste 0 949.6 0 56
2019-04-18 17:00:00 15.3 5 Norte 21 Norte 0 948.9 -0.9 39
2019-04-18 16:00:00 16.6 5 Nordeste 21 Norte 0.1 949.4 -1.4 40
2019-04-18 15:00:00 14.7 10 Nordeste 27 Norte 0 949.6 -1.6 45
2019-04-18 14:00:00 16.7 0 Calma 2 Sudoeste 0 949.8 -1.7 42
2019-04-18 13:00:00 14.8 0 Calma -- -- 0 950.8 -0.1 52
2019-04-18 12:00:00 12.4 0 Calma -- -- 0 951.2 -0.2 67
2019-04-18 11:00:00 11.7 0 Calma -- -- 0 951.5 0.6 74
2019-04-18 10:00:00 10.5 0 Calma -- -- 0 950.9 0.6 86
2019-04-18 09:00:00 9.5 0 Calma -- -- 0 951.4 1.1 91
2019-04-18 08:00:00 9 0 Calma 0 Calma 0 950.9 0.3 92
2019-04-18 07:00:00 9.3 0 Calma -- -- 0 950.3 -0.8 92
2019-04-18 06:00:00 9.5 0 Calma -- -- 0 950.3 -1.5 91
2019-04-18 05:00:00 9.7 0 Calma -- -- 0 950.6 -1.4 96
2019-04-18 04:00:00 10.3 0 Calma -- -- 0 951.1 -1 96
2019-04-18 03:00:00 10.4 0 Calma -- -- 0 951.8 -0.5 96
2019-04-18 02:00:00 10.8 0 Calma 0 Calma 1.1 952 0 96
2019-04-18 01:00:00 11.5 0 Calma 0 Calma 0.1 952.1 1.5 87
2019-04-18 00:00:00 11.4 0 Calma 7 Sudoeste 0.4 952.3 3 91
2019-04-17 23:00:00 12.7 0 Calma 22 Oeste 0 952 2.8 77
2019-04-17 22:00:00 14.9 7 Oeste 22 Sudoeste 0 950.6 2.3 57
2019-04-17 21:00:00 17.2 9 Sudoeste 22 Sudoeste 0 949.3 1.4 43
2019-04-17 20:00:00 18.1 6 Sudoeste 23 Sudoeste 0 949.2 1.7 39
2019-04-17 19:00:00 19.1 5 Sudoeste 27 Sudoeste 0 948.3 0.6 36
2019-04-17 18:00:00 19.8 11 Sudoeste 42 Sudoeste 0.2 947.9 -0.4 35
2019-04-17 17:00:00 21.2 13 Sudoeste 33 Sudoeste 0 947.5 -1.3 31
2019-04-17 16:00:00 21.8 5 Sur 12 Sur 0 947.7 -1.8 28
2019-04-17 15:00:00 21.5 0 Calma 4 Sudoeste 0 948.3 -1.7 30
2019-04-17 14:00:00 21.8 0 Calma 0 Calma 0 948.8 -1.3 31
2019-04-17 13:00:00 21.6 0 Calma 0 Calma 0.1 949.5 -0.8 33
2019-04-17 12:00:00 17.9 0 Calma -- -- 0 950 0 45
2019-04-17 11:00:00 14.2 0 Calma 0 Calma 0 950.1 0 59
2019-04-17 10:00:00 11.4 0 Calma -- -- 0 950.3 0.2 71
2019-04-17 09:00:00 9.1 0 Calma 0 Calma 0 950 -0.3 74
2019-04-17 08:00:00 8.1 0 Calma -- -- 0 950.1 -0.6 74
2019-04-17 07:00:00 7.6 0 Calma -- -- 0 950.1 -1.2 70
2019-04-17 06:00:00 9.2 0 Calma -- -- 0 950.3 -1.3 61
2019-04-17 05:00:00 9.1 0 Calma -- -- 0 950.7 -1.3 61
2019-04-17 04:00:00 11.9 0 Calma -- -- 0 951.3 -1 47
2019-04-17 03:00:00 12.7 0 Calma -- -- 0 951.6 -0.5 44
2019-04-17 02:00:00 10.8 0 Calma -- -- 0 952 0.4 47
2019-04-17 01:00:00 13.2 0 Calma -- -- 0 952.3 0.8 33
2019-04-17 00:00:00 14.8 0 Calma -- -- 0 952.1 0.8 26
2019-04-16 23:00:00 16.4 0 Calma 9 Sur 0 951.6 0.4 22
2019-04-16 22:00:00 18.1 6 Sur 20 Sur 0 951.5 0 18
2019-04-16 21:00:00 19.2 8 Sur 23 Sur 0 951.3 -0.7 18
2019-04-16 20:00:00 21.6 11 Sur 19 Este 0 951.2 -1.6 17
2019-04-16 19:00:00 22.5 10 Sur 24 Sur 0 951.5 -2.5 17
2019-04-16 18:00:00 23.3 6 Este 24 Sur 0 952 -2.8 16
2019-04-16 17:00:00 23.1 9 Este 24 Este 0 952.8 -2.7 17
2019-04-16 16:00:00 22 8 Este 23 Sudeste 0 954 -2.2 20
2019-04-16 15:00:00 21.9 4 Sur 21 Sudeste 0 954.8 -2.1 21
2019-04-16 14:00:00 20.2 9 Este 24 Sudeste 0 955.5 -1.3 24
2019-04-16 13:00:00 19.2 3 Este 24 Sudeste 0.1 956.2 -0.9 26
2019-04-16 12:00:00 17.3 3 Este 16 Nordeste 0 956.9 0.1 29
2019-04-16 11:00:00 14.4 0 Calma 0 Calma 0 956.8 0.1 56
2019-04-16 10:00:00 9.7 0 Calma -- -- 0 957.1 0.6 72
2019-04-16 09:00:00 6 0 Calma -- -- 0 956.8 0.2 96
2019-04-16 08:00:00 4 0 Calma -- -- 0 956.7 0 96
2019-04-16 07:00:00 4.9 0 Calma -- -- 0 956.5 -0.3 96
2019-04-16 06:00:00 6.2 0 Calma -- -- 0 956.6 0 96
2019-04-16 05:00:00 5.9 0 Calma -- -- 0 956.7 0.4 94
2019-04-16 04:00:00 6.7 0 Calma -- -- 0 956.8 0.9 91
2019-04-16 03:00:00 8.3 0 Calma -- -- 0 956.6 1 87
2019-04-16 02:00:00 9.3 0 Calma -- -- 0 956.3 0.9 80
2019-04-16 01:00:00 10.4 0 Calma 0 Calma 0 955.9 1.4 73
2019-04-16 00:00:00 11.8 0 Calma -- -- 0 955.6 2.4 69
2019-04-15 23:00:00 12.8 0 Calma 6 Oeste 0 955.4 2.9 65
2019-04-15 22:00:00 13.7 0 Calma 18 Oeste 0 954.5 3.2 60
2019-04-15 21:00:00 15.1 3 Oeste 22 Oeste 0 953.2 2.4 55
2019-04-15 20:00:00 16.4 4 Oeste 32 Oeste 0 952.5 1.9 45
2019-04-15 19:00:00 20.2 7 Oeste 40 Sudoeste 0 951.3 0.9 25
2019-04-15 18:00:00 23.2 9 Oeste 28 Oeste 0.1 950.8 0.1 25
2019-04-15 17:00:00 24.5 5 Sudoeste 29 Sudoeste 0 950.6 -0.5 25
2019-04-15 16:00:00 25 7 Sudoeste 31 Sudoeste 0 950.4 -1.1 23
2019-04-15 15:00:00 24.9 9 Sudoeste 37 Sudoeste 0 950.7 -1.2 24
2019-04-15 14:00:00 23.7 14 Sudoeste 32 Sur 0 951.1 -0.9 23
2019-04-15 13:00:00 22.6 12 Sudoeste 31 Sudoeste 0 951.5 -0.5 31
2019-04-15 12:00:00 20.9 0 Calma 0 Calma 0 951.9 0.2 45
2019-04-15 11:00:00 17.1 0 Calma 2 Sudeste 0 952 0.5 55
2019-04-15 10:00:00 13.2 0 Calma -- -- 0 952 0 74
2019-04-15 09:00:00 11.2 0 Calma -- -- 0 951.7 -0.5 74
2019-04-15 08:00:00 8.2 0 Calma -- -- 0 951.5 -1 96
2019-04-15 07:00:00 8.2 0 Calma -- -- 0 952 -1.1 96
2019-04-15 06:00:00 9.2 0 Calma -- -- 0 952.2 -1.5 96
2019-04-15 05:00:00 9.4 0 Calma 0 Calma 0 952.5 -1.9 96
2019-04-15 04:00:00 10.3 0 Calma -- -- 0 953.1 -1.3 92
2019-04-15 03:00:00 10.9 0 Calma -- -- 0 953.7 -0.8 89
2019-04-15 02:00:00 12.4 0 Calma -- -- 0 954.4 -0.3 84
2019-04-15 01:00:00 13.4 0 Calma -- -- 0 954.4 -0.2 74
2019-04-15 00:00:00 14.5 0 Calma -- -- 0 954.5 0 69
2019-04-14 23:00:00 15.2 0 Calma -- -- 0.1 954.7 0.4 64
2019-04-14 22:00:00 16.9 0 Calma 9 Sudoeste 0 954.6 0.1 55
2019-04-14 21:00:00 17.3 6 Sudoeste 10 Sudoeste 0 954.5 0.2 52
2019-04-14 20:00:00 19.3 0 Calma 15 Sudoeste 0 954.3 -0.7 45
2019-04-14 19:00:00 20.5 0 Calma 17 Sudoeste 0 954.5 -1.4 41
2019-04-14 18:00:00 22.6 3 Oeste 21 Oeste 0 954.3 -2.1 36
2019-04-14 17:00:00 22.6 2 Oeste 14 Oeste 0 955 -1.7 37
2019-04-14 16:00:00 21.8 0 Calma 13 Oeste 0 955.9 -1.3 41
2019-04-14 15:00:00 19.8 0 Calma 10 Oeste 0 956.4 -1 47
2019-04-14 14:00:00 17.1 0 Calma 0 Calma 0 956.7 -0.8 62
2019-04-14 13:00:00 15.2 0 Calma 0 Calma 0 957.2 -0.2 72
2019-04-14 12:00:00 13.6 0 Calma -- -- 0 957.4 0.2 78
2019-04-14 11:00:00 10.9 0 Calma -- -- 0 957.5 0.6 78
2019-04-14 10:00:00 8.7 0 Calma -- -- 0.1 957.4 0.9 80
2019-04-14 09:00:00 8 0 Calma -- -- 0 957.2 0.7 83
2019-04-14 08:00:00 6.3 0 Calma -- -- 0 956.9 0 90
2019-04-14 07:00:00 6.9 0 Calma -- -- 0 956.5 -0.7 83
2019-04-14 06:00:00 7.3 0 Calma -- -- 0 956.5 -0.6 83
2019-04-14 05:00:00 9.4 0 Calma -- -- 0 956.9 -0.4 67
2019-04-14 04:00:00 8.4 0 Calma -- -- 0 957.2 -0.3 70
2019-04-14 03:00:00 9.7 0 Calma -- -- 0 957.1 -0.5 63
2019-04-14 02:00:00 11.2 0 Calma -- -- 0 957.3 -0.1 55
2019-04-14 01:00:00 13.3 0 Calma -- -- 0.1 957.5 0.4 37
2019-04-14 00:00:00 13.2 0 Calma -- -- 0 957.6 1.1 35
2019-04-13 23:00:00 14.4 0 Calma 0 Calma 0 957.4 1.3 32
2019-04-13 22:00:00 15.6 0 Calma 9 Sudoeste 0.1 957.1 1.3 26
2019-04-13 21:00:00 16.9 4 Sudoeste 18 Oeste 0 956.5 0.6 26
2019-04-13 20:00:00 18.8 2 Sudoeste 22 Oeste 0 956.1 -0.1 24
2019-04-13 19:00:00 20.5 6 Sudoeste 22 Oeste 0 955.8 -0.8 23
2019-04-13 18:00:00 21.9 5 Sudoeste 41 Sudoeste 0 955.9 -0.8 21
2019-04-13 17:00:00 22.3 4 Sudoeste 27 Sudoeste 0 956.2 -0.9 21
2019-04-13 16:00:00 21.3 11 Sudoeste 27 Sudoeste 0 956.6 -0.8 22
2019-04-13 15:00:00 21.9 6 Oeste 24 Oeste 0 956.7 -1.1 21
2019-04-13 14:00:00 21.5 5 Sudoeste 20 Oeste 0 957.1 -0.7 22
2019-04-13 13:00:00 21.5 0 Calma 10 Sudoeste 0 957.4 -0.6 25
2019-04-13 12:00:00 17.5 0 Calma 0 Calma 0 957.8 -0.2 33
2019-04-13 11:00:00 13.8 0 Calma -- -- 0 957.8 0.5 41
2019-04-13 10:00:00 7.6 0 Calma -- -- 0 958 0.9 70
2019-04-13 09:00:00 5.8 0 Calma -- -- 0 958 1.3 72
2019-04-13 08:00:00 3.3 0 Calma -- -- 0 957.3 0.7 94
2019-04-13 07:00:00 2.8 0 Calma -- -- 0 957.1 0.5 91
2019-04-13 06:00:00 3.2 0 Calma -- -- 0 956.7 -0.2 90
2019-04-13 05:00:00 4.7 0 Calma -- -- 0 956.6 -0.2 85
2019-04-13 04:00:00 4.9 0 Calma 0 Calma 0 956.6 -0.1 80
2019-04-13 03:00:00 5.8 0 Calma -- -- 0 956.9 0.3 74
2019-04-13 02:00:00 8.2 0 Calma -- -- 0 956.8 0.9 60
2019-04-13 01:00:00 8.8 0 Calma -- -- 0 956.7 1 51
2019-04-13 00:00:00 10.6 0 Calma -- -- 0 956.6 1.5 44
2019-04-12 23:00:00 12.8 0 Calma 0 Calma 0 955.9 1.3 37
2019-04-12 22:00:00 13.3 0 Calma 10 Sudoeste 0 955.7 1 34
2019-04-12 21:00:00 15.2 0 Calma 12 Oeste 0.1 955.1 0.3 25
2019-04-12 20:00:00 16.8 0 Calma 21 Sudoeste 0 954.6 -0.4 20
2019-04-12 19:00:00 18.2 7 Sudoeste 17 Sudoeste 0 954.7 -1.1 18
2019-04-12 18:00:00 20 4 Oeste 16 Sudoeste 0 954.8 -1.6 16
2019-04-12 17:00:00 20.6 2 Noroeste 17 Norte 0 955 -1.6 14
2019-04-12 16:00:00 19.7 3 Noroeste 18 Norte 0 955.8 -1.4 16
2019-04-12 15:00:00 19.2 0 Calma 17 Oeste 0 956.4 -1.2 16
2019-04-12 14:00:00 18.2 0 Calma 19 Sudoeste 0 956.6 -0.9 20
2019-04-12 13:00:00 17.7 0 Calma 6 Noroeste 0 957.2 -0.3 21
2019-04-12 12:00:00 15.6 0 Calma 0 Calma 0 957.6 0.1 34
2019-04-12 11:00:00 10.5 0 Calma 0 Calma 0 957.5 0.2 48
2019-04-12 10:00:00 6.6 0 Calma -- -- 0 957.5 0.5 65
2019-04-12 09:00:00 4.3 0 Calma -- -- 0 957.5 0.6 79
2019-04-12 08:00:00 0.7 0 Calma -- -- 0 957.3 0.4 96
2019-04-12 07:00:00 1.3 0 Calma -- -- 0 957 0.3 96
2019-04-12 06:00:00 1.8 0 Calma -- -- 0 956.9 0.4 96
2019-04-12 05:00:00 2.4 0 Calma -- -- 0 956.9 -0.1 92
2019-04-12 04:00:00 3.6 0 Calma -- -- 0 956.7 0 92
2019-04-12 03:00:00 4.1 0 Calma -- -- 0 956.5 -0.3 87
2019-04-12 02:00:00 5 0 Calma -- -- 0 957 0.6 82
2019-04-12 01:00:00 6.4 0 Calma -- -- 0 956.7 0.7 74
2019-04-12 00:00:00 8.1 0 Calma -- -- 0 956.8 1.4 63
2019-04-11 23:00:00 9.5 0 Calma 8 Sudoeste 0 956.4 1.2 51
2019-04-11 22:00:00 10.6 0 Calma -- -- 0 956 0.8 42
2019-04-11 21:00:00 12.3 4 Sudoeste 17 Oeste 0 955.4 0.7 33
2019-04-11 20:00:00 13.2 2 Sudoeste 13 Sudoeste 0.1 955.2 0.2 30
2019-04-11 19:00:00 16 0 Calma 22 Oeste 0 955.2 -0.5 24
2019-04-11 18:00:00 17.9 3 Oeste 21 Oeste 0 954.7 -1.1 23
2019-04-11 17:00:00 16.3 0 Calma 21 Oeste 0 955 -1.4 22
2019-04-11 16:00:00 16.5 3 Sudoeste 18 Sudoeste 0 955.7 -1.1 23
2019-04-11 15:00:00 18 3 Sudoeste 17 Oeste 0 955.8 -1.5 21
2019-04-11 14:00:00 15.7 0 Calma 5 Noroeste 0 956.4 -0.8 25
2019-04-11 13:00:00 15.1 0 Calma 0 Calma 0 956.8 -0.6 28
2019-04-11 12:00:00 13.5 0 Calma 0 Calma 0 957.3 0 41
2019-04-11 11:00:00 7.8 0 Calma -- -- 0 957.2 0.6 78
2019-04-11 10:00:00 3.4 0 Calma 0 Calma 0 957.4 1.1 98
2019-04-11 09:00:00 1.5 0 Calma -- -- 0 957.3 1.3 98
2019-04-11 08:00:00 1.1 0 Calma -- -- 0 956.6 0.7 98
2019-04-11 07:00:00 1.5 0 Calma -- -- 0 956.3 0.8 98
2019-04-11 06:00:00 1.1 0 Calma -- -- 0 956 0.3 98
2019-04-11 05:00:00 2.6 0 Calma -- -- 0 955.9 0.2 97
2019-04-11 04:00:00 3.7 0 Calma -- -- 0 955.5 0.1 97
2019-04-11 03:00:00 4.4 0 Calma -- -- 0 955.7 0.5 96
2019-04-11 02:00:00 4.8 0 Calma -- -- 0 955.7 0.6 96
2019-04-11 01:00:00 5.9 0 Calma 0 Calma 0 955.4 0.8 92
2019-04-11 00:00:00 7.3 0 Calma -- -- 0 955.2 1.5 85
2019-04-10 23:00:00 7.9 0 Calma 0 Calma 0 955.1 2.7 84
2019-04-10 22:00:00 8.7 0 Calma 8 Sudoeste 0.1 954.6 2.9 78
2019-04-10 21:00:00 9.9 0 Calma 39 Nordeste 0 953.7 2.2 59
2019-04-10 20:00:00 14.7 0 Calma 28 Noroeste 0 952.4 0.3 34
2019-04-10 19:00:00 15.5 8 Oeste 36 Oeste 0 951.7 -0.9 33
2019-04-10 18:00:00 15.2 6 Oeste 27 Sudoeste 0 951.5 -1.5 34
2019-04-10 17:00:00 14.8 8 Oeste 34 Oeste 0 952.1 -1.4 31
2019-04-10 16:00:00 17.5 6 Oeste 32 Sudoeste 0 952.6 -1.7 31
2019-04-10 15:00:00 15.6 5 Oeste 29 Oeste 0 953 -1.3 35
2019-04-10 14:00:00 13.5 6 Sudoeste 26 Sudoeste 0 953.5 -1.1 44
2019-04-10 13:00:00 13 0 Calma 23 Sudoeste 0 954.3 0 47
2019-04-10 12:00:00 11.8 2 Oeste 16 Oeste 0 954.3 0.1 54
2019-04-10 11:00:00 10.7 0 Calma 19 Oeste 0 954.6 0.9 61
2019-04-10 10:00:00 9.4 0 Calma 15 Oeste 0 954.3 0.8 69
2019-04-10 09:00:00 7.9 0 Calma 0 Calma 0 954.2 0.6 79
2019-04-10 08:00:00 6 0 Calma -- -- -- 953.7 0.1 89
2019-04-10 07:00:00 6.1 0 Calma 0 Calma 0 953.5 0.1 89
2019-04-10 06:00:00 5.7 0 Calma 2 Oeste 0 953.6 0 89
2019-04-10 05:00:00 5.8 0 Calma 17 Sudoeste 0 953.6 -0.2 87
2019-04-10 04:00:00 6.5 0 Calma 17 Sudoeste 0 953.4 -0.6 83
2019-04-10 03:00:00 7.1 0 Calma 14 Oeste 0 953.6 -0.3 81
2019-04-10 02:00:00 7.5 0 Calma 14 Sudoeste 0 953.8 0.3 78
2019-04-10 01:00:00 7.6 0 Calma 13 Oeste 0 954 0.9 74
2019-04-10 00:00:00 8.4 0 Calma 13 Sudoeste 0 953.9 1.4 71
2019-04-09 23:00:00 9.8 6 Oeste 27 Sudoeste 0 953.5 1.5 61
2019-04-09 22:00:00 9.9 0 Calma 18 Oeste 0 953.1 1.4 61
2019-04-09 21:00:00 10.6 0 Calma 28 Oeste 0 952.5 0.7 58
2019-04-09 20:00:00 12.6 13 Oeste 31 Sudoeste 0 952 -0.5 48
2019-04-09 19:00:00 13.2 11 Sudoeste 35 Sudoeste 0 951.7 -0.8 46
2019-04-09 18:00:00 13.9 10 Oeste 36 Oeste 0 951.8 -1.2 46
2019-04-09 17:00:00 10.5 8 Oeste 41 Oeste 0.5 952.5 -0.5 81
2019-04-09 16:00:00 13.4 11 Oeste 40 Oeste 0.1 952.5 -1.2 58
2019-04-09 15:00:00 11.4 0 Calma 39 Sudoeste 0.1 953 -1.3 74
2019-04-09 14:00:00 12.8 9 Sudoeste 36 Oeste 0 953 -1.2 58
2019-04-09 13:00:00 9.6 3 Oeste 22 Sudoeste 0.1 953.7 -0.3 78
2019-04-09 12:00:00 7.3 0 Calma 24 Oeste 3.6 954.3 -0.1 91
2019-04-09 11:00:00 7.8 9 Sudoeste 31 Sudoeste 0.4 954.2 0.4 81
2019-04-09 10:00:00 8.8 6 Sudoeste 31 Sudoeste 0.1 954 0.4 73
2019-04-09 09:00:00 7.4 0 Calma 14 Sudoeste 0.1 954.4 0.6 87
2019-04-09 08:00:00 7.3 0 Calma 20 Sudoeste 0 953.8 0 85
2019-04-09 07:00:00 7.3 0 Calma 0 Calma 0 953.6 -0.2 86
2019-04-09 06:00:00 7.5 0 Calma 4 Oeste 0 953.8 -0.2 85
2019-04-09 05:00:00 7.5 0 Calma -- -- 0 953.8 0 85
2019-04-09 04:00:00 6.8 0 Calma 6 Sudoeste 0 953.8 0.3 88
2019-04-09 03:00:00 6.9 0 Calma -- -- 0 954 0.6 87
2019-04-09 02:00:00 6.8 0 Calma -- -- 0 953.8 0.2 88
2019-04-09 01:00:00 7.5 0 Calma 5 Sudoeste 0 953.5 1.2 83
2019-04-09 00:00:00 8.1 0 Calma 11 Sudoeste 0 953.4 1.8 82
2019-04-08 23:00:00 9.5 0 Calma 17 Oeste 0 953.6 2.1 63
2019-04-08 22:00:00 10.1 0 Calma 0 Calma 0 952.3 1 48
2019-04-08 21:00:00 11.2 0 Calma 15 Noroeste 0 951.6 0.3 40
2019-04-08 20:00:00 13.6 0 Calma 29 Oeste 0 951.5 -0.1 34
2019-04-08 19:00:00 14.5 9 Oeste 30 Sudoeste 0 951.3 -0.6 36
2019-04-08 18:00:00 16.5 3 Oeste 26 Oeste 0 951.3 -1.3 39
2019-04-08 17:00:00 15.1 4 Oeste 24 Oeste 0 951.6 -1.3 46
2019-04-08 16:00:00 15.3 4 Sudoeste 24 Sudoeste 0 951.9 -1.6 50
2019-04-08 15:00:00 13.7 0 Calma -- -- -- 952.6 -0.6 58
2019-04-08 14:00:00 13.7 0 Calma 18 Sudoeste 0 952.9 -0.1 61
2019-04-08 13:00:00 11.7 0 Calma 16 Sudoeste 0.7 953.5 0.6 81
2019-04-08 12:00:00 12.8 0 Calma 13 Sudoeste 0.1 953.2 0.6 74
2019-04-08 11:00:00 12.3 0 Calma 2 Sudoeste 0 953 0.6 82
2019-04-08 10:00:00 9.6 0 Calma 0 Calma 0.9 952.9 0.9 95
2019-04-08 09:00:00 9.5 0 Calma -- -- 0 952.6 0.3 91
2019-04-08 08:00:00 9 0 Calma -- -- 0.2 952.4 0.1 92
2019-04-08 07:00:00 9.3 0 Calma -- -- 0.1 952 -0.1 92
2019-04-08 06:00:00 9.1 0 Calma -- -- 0.1 952.3 -0.1 94
2019-04-08 05:00:00 9.6 0 Calma 18 Sudoeste 0.9 952.3 -0.4 92
2019-04-08 04:00:00 9.8 0 Calma -- -- 1 952.1 -0.8 96
2019-04-08 03:00:00 10 0 Calma 0 Calma 0 952.4 -0.1 91
2019-04-08 02:00:00 10 0 Calma 13 Oeste 0 952.7 0.2 91
2019-04-08 01:00:00 10.2 2 Sudoeste 19 Sudoeste 0 952.9 0.5 92
2019-04-08 00:00:00 9.8 0 Calma 2 Sudoeste 1.6 952.5 0.3 96
2019-04-07 23:00:00 9.5 0 Calma -- -- 0.7 952.5 0.2 97
2019-04-07 22:00:00 9.4 0 Calma -- -- 0.8 952.4 0.4 97
2019-04-07 21:00:00 9.3 0 Calma -- -- 0.1 952.2 0.1 96
2019-04-07 20:00:00 9.5 0 Calma 13 Sur 0 952.3 0.2 92
2019-04-07 19:00:00 10.1 0 Calma 19 Sur 0 952 -0.4 80
2019-04-07 18:00:00 10.6 0 Calma 23 Sudoeste 0 952.1 -0.4 70
2019-04-07 17:00:00 10.9 0 Calma 22 Sudoeste 0 952.1 -0.2 59
2019-04-07 16:00:00 10.8 3 Oeste 22 Sudoeste 0 952.4 0.1 61
2019-04-07 15:00:00 11.2 3 Sudoeste 23 Sudoeste 0 952.5 0.8 57
2019-04-07 14:00:00 11 0 Calma 24 Sudoeste 0 952.3 1.1 57
2019-04-07 13:00:00 10.2 8 Sudoeste 23 Sudoeste 0 952.3 1.6 63
2019-04-07 12:00:00 10.7 0 Calma 21 Oeste 0 951.7 1.7 59
2019-04-07 11:00:00 10 2 Oeste 19 Noroeste 0 951.2 1.9 64
2019-04-07 10:00:00 8.5 2 Oeste 18 Oeste 0 950.7 2.2 73
2019-04-07 09:00:00 7.2 0 Calma 20 Sudoeste 0 950 2.1 80
2019-04-07 08:00:00 6.5 0 Calma 22 Oeste 0 949.3 2 83
2019-04-07 07:00:00 6.5 0 Calma 26 Oeste 0 948.5 1 83
2019-04-07 06:00:00 6.4 4 Oeste 26 Oeste 0 947.9 0.7 86
2019-04-07 05:00:00 6.2 8 Oeste 28 Oeste 0.6 947.3 0 92
2019-04-07 04:00:00 6.2 0 Calma 27 Oeste 0.2 947.5 -0.3 92
2019-04-07 03:00:00 5.9 0 Calma 24 Oeste 0.2 947.2 -0.3 89
2019-04-07 02:00:00 6.2 0 Calma 8 Sudoeste 0 947.3 0.5 83
2019-04-07 01:00:00 6.2 0 Calma 18 Oeste 0 947.8 1.2 82
2019-04-07 00:00:00 6.5 0 Calma 28 Sudoeste 0 947.5 1.6 77
2019-04-06 23:00:00 6.3 6 Sudoeste -- -- -- 946.8 1.3 76
2019-04-06 22:00:00 6.5 0 Calma 21 Oeste 0 946.6 1.9 72
2019-04-06 21:00:00 6.6 0 Calma 25 Oeste 0 945.9 1.3 69
2019-04-06 20:00:00 8.1 0 Calma 22 Oeste 0 945.5 0.7 63
2019-04-06 19:00:00 8.5 4 Oeste 24 Oeste 0 944.7 0.2 66
2019-04-06 18:00:00 8.1 0 Calma 23 Sudoeste 0 944.6 0.5 65
2019-04-06 17:00:00 6.1 0 Calma 46 Oeste 0.3 944.8 0.2 84
2019-04-06 16:00:00 7.7 0 Calma 31 Noroeste 1.1 944.5 -0.5 83
2019-04-06 15:00:00 11.3 9 Sudoeste 27 Sudoeste 0 944.1 -0.8 51
2019-04-06 14:00:00 9.4 8 Oeste 43 Oeste 0 944.6 0 63
2019-04-06 13:00:00 7.2 9 Sudoeste 53 Sudoeste 2.1 945 0.9 82
2019-04-06 12:00:00 5.1 7 Oeste 35 Sudoeste 1.3 944.9 0.7 84
2019-04-06 11:00:00 6.4 5 Oeste 25 Sudoeste 0.2 944.6 0.6 83
2019-04-06 10:00:00 6.2 2 Oeste 27 Oeste 0.2 944.1 0.5 89
2019-04-06 09:00:00 5.2 0 Calma 15 Oeste 0.8 944.2 1.2 94
2019-04-06 08:00:00 4.9 0 Calma 21 Oeste 0.5 944 1.1 95
2019-04-06 07:00:00 4.6 0 Calma 21 Oeste 1.5 943.6 0.5 94
2019-04-06 06:00:00 5.6 0 Calma 26 Oeste 0 943 -0.2 81
2019-04-06 05:00:00 5.6 0 Calma 16 Oeste 0 942.9 -0.5 82
2019-04-06 04:00:00 5.4 4 Oeste 22 Oeste 0 943.1 0.3 80
2019-04-06 03:00:00 5.5 6 Oeste 28 Oeste 0 943.2 0.5 81
2019-04-06 02:00:00 5.6 5 Sudoeste 30 Oeste 0 943.4 1 83
2019-04-06 01:00:00 5 7 Oeste 28 Oeste 0.2 942.8 1 89
2019-04-06 00:00:00 6 0 Calma 25 Oeste 0 942.7 2 81
2019-04-05 23:00:00 6.1 7 Sudoeste 28 Sudoeste 0 942.4 2.1 78
2019-04-05 22:00:00 5.7 5 Sudoeste 24 Sudoeste 0.1 941.8 1.8 80
2019-04-05 21:00:00 6 10 Sudoeste 37 Sudoeste 0 940.7 1.3 65
2019-04-05 20:00:00 8.8 0 Calma 30 Sudoeste 0 940.3 0.9 46
2019-04-05 19:00:00 9.3 11 Oeste 37 Oeste 0 940 1.1 37
2019-04-05 18:00:00 10.3 17 Sudoeste 39 Sudoeste 0 939.4 0.1 44
2019-04-05 17:00:00 8.2 9 Oeste 40 Sudoeste 0 939.4 -0.1 53
2019-04-05 16:00:00 10.4 5 Sudoeste 32 Oeste 0 938.9 -0.8 53
2019-04-05 15:00:00 9.3 6 Oeste 35 Sudoeste 0 939.3 0.4 64
2019-04-05 14:00:00 7.8 5 Sudoeste 27 Sudoeste 0 939.5 0.3 79
2019-04-05 13:00:00 5.5 0 Calma 29 Sudoeste 1.5 939.7 0.7 90
2019-04-05 12:00:00 7.8 7 Sudoeste 19 Sudoeste 0.6 938.9 -0.3 85
2019-04-05 11:00:00 6.3 0 Calma -- -- 0.2 939.2 0 96
2019-04-05 10:00:00 6.1 0 Calma 0 Calma 1 939 -0.5 95
2019-04-05 09:00:00 5.8 0 Calma 26 Sudoeste 0.4 939.2 -0.8 92
2019-04-05 08:00:00 5.5 0 Calma 14 Sur 0.2 939.2 -0.8 94
2019-04-05 07:00:00 5.3 0 Calma 24 Sudoeste 1.5 939.5 -0.9 90
2019-04-05 06:00:00 6.2 0 Calma 14 Oeste 0.6 940 -0.7 91
2019-04-05 05:00:00 7.3 0 Calma 12 Sudoeste 0 940 -0.6 74
2019-04-05 04:00:00 7.7 0 Calma 25 Sudoeste 0 940.4 -0.3 65
2019-04-05 03:00:00 9.1 0 Calma 20 Oeste 0 940.7 0.3 49
2019-04-05 02:00:00 9.7 3 Oeste 19 Oeste 0 940.6 0.3 42
2019-04-05 01:00:00 10.3 0 Calma 9 Oeste 0 940.7 0.4 33
2019-04-05 00:00:00 10.8 0 Calma 15 Oeste 0 940.4 0.3 27
2019-04-04 23:00:00 11.4 0 Calma 10 Oeste 0 940.3 0.1 24
2019-04-04 22:00:00 11.2 0 Calma 0 Calma 0 940.3 0.1 25
2019-04-04 21:00:00 11.6 0 Calma 18 Oeste 0 940.1 0 25
2019-04-04 20:00:00 13.6 0 Calma 20 Sudoeste 0 940.2 -0.4 22
2019-04-04 19:00:00 14.9 3 Sudoeste 24 Oeste 0 940.2 -1.1 21
2019-04-04 18:00:00 17.1 0 Calma 21 Sudoeste 0 940.1 -2.1 18
2019-04-04 17:00:00 17.7 2 Oeste 21 Sudoeste 0 940.6 -2.5 18
2019-04-04 16:00:00 15.6 12 Sur 28 Sur 0 941.3 -2.5 19
2019-04-04 15:00:00 15.6 3 Sudoeste 17 Sudoeste 0 942.2 -2.2 20
2019-04-04 14:00:00 14.8 0 Calma 14 Nordeste 0 943.1 -1.3 21
2019-04-04 13:00:00 13.9 0 Calma 10 Sudeste 0 943.8 -0.7 21
2019-04-04 12:00:00 13.2 0 Calma 2 Sudeste 0 944.4 0.1 25
2019-04-04 11:00:00 10.5 0 Calma -- -- 0 944.4 1 33
2019-04-04 10:00:00 6.5 0 Calma -- -- 0 944.5 1.5 54
2019-04-04 09:00:00 2.2 0 Calma -- -- 0 944.3 1.7 70
2019-04-04 08:00:00 -0.6 0 Calma -- -- 0 943.4 0.8 80
2019-04-04 07:00:00 1 0 Calma -- -- 0 943 0.6 72
2019-04-04 06:00:00 1.4 0 Calma -- -- 0 942.6 -0.4 66
2019-04-04 05:00:00 5 0 Calma -- -- 0 942.6 -0.7 52
2019-04-04 04:00:00 4.4 0 Calma -- -- 0 942.4 -1.2 55
2019-04-04 03:00:00 4.2 0 Calma -- -- 0 943 -0.5 57
2019-04-04 02:00:00 4.7 0 Calma -- -- 0 943.3 -0.3 47
2019-04-04 01:00:00 6.6 0 Calma -- -- 0 943.6 0.4 41
2019-04-04 00:00:00 7.8 0 Calma -- -- 0 943.5 1 36
2019-04-03 23:00:00 9.1 0 Calma -- -- 0 943.6 1.3 32
2019-04-03 22:00:00 10.2 0 Calma -- -- 0 943.2 0.7 28
2019-04-03 21:00:00 12.5 0 Calma 19 Oeste 0 942.5 0 26
2019-04-03 20:00:00 14.5 0 Calma 23 Oeste 0.1 942.3 -1 27
2019-04-03 19:00:00 15.8 2 Oeste 29 Oeste 0 942.5 -1.5 25
2019-04-03 18:00:00 17.6 7 Sudoeste 31 Oeste 0 942.5 -2.2 27
2019-04-03 17:00:00 16.8 13 Sudoeste 36 Oeste 0 943.3 -2 22
2019-04-03 16:00:00 18.4 6 Oeste 33 Sudoeste 0.1 944 -1.8 20
2019-04-03 15:00:00 17.9 6 Sudoeste 36 Sudoeste 0 944.7 -2.2 18
2019-04-03 14:00:00 17.5 10 Sudoeste 36 Sudoeste 0 945.3 -2.1 21
2019-04-03 13:00:00 17.4 3 Sudoeste 23 Sudoeste 0 945.8 -2.2 29
2019-04-03 12:00:00 15.1 8 Sudoeste 22 Sudoeste 0 946.9 -1.5 35
2019-04-03 11:00:00 14 0 Calma -- -- 0 947.4 -1.3 46
2019-04-03 10:00:00 10.3 0 Calma -- -- 0 948 -0.9 63
2019-04-03 09:00:00 7.5 0 Calma -- -- 0 948.4 -0.7 79
2019-04-03 08:00:00 3.3 0 Calma -- -- 0 948.7 -0.9 92
2019-04-03 07:00:00 4.6 0 Calma -- -- 0 948.9 -1.4 89
2019-04-03 06:00:00 6.7 0 Calma -- -- 0 949.1 -1.8 86
2019-04-03 05:00:00 7.1 0 Calma -- -- 0 949.6 -2 78
2019-04-03 04:00:00 7.8 0 Calma -- -- 0 950.3 -1.6 74
2019-04-03 03:00:00 8.2 0 Calma -- -- 0 950.9 -1.2 70
2019-04-03 02:00:00 8.4 0 Calma -- -- 0 951.6 -0.7 67
2019-04-03 01:00:00 10.2 0 Calma -- -- 0 951.9 -0.3 58
2019-04-03 00:00:00 11.5 0 Calma -- -- 0 952.1 0.2 50
2019-04-02 23:00:00 12.5 0 Calma -- -- 0 952.3 0.7 48
2019-04-02 22:00:00 13.1 0 Calma -- -- 0 952.2 0.6 41
2019-04-02 21:00:00 14.6 0 Calma 13 Oeste 0 951.9 0.3 35
2019-04-02 20:00:00 16.2 0 Calma 18 Sudoeste 0 951.6 -0.6 30
2019-04-02 19:00:00 17.9 2 Oeste 20 Sudoeste 0 951.6 -1.2 29
2019-04-02 18:00:00 19.5 0 Calma 26 Sudoeste 0 951.6 -1.8 28
2019-04-02 17:00:00 19.8 8 Sudoeste 23 Sudoeste 0 952.2 -1.9 29
2019-04-02 16:00:00 19.3 5 Sudoeste 21 Sudoeste 0 952.8 -2 30
2019-04-02 15:00:00 17.7 0 Calma 0 Calma 0 953.4 -2.1 40
2019-04-02 14:00:00 18 0 Calma -- -- 0 954.1 -1.3 44
2019-04-02 13:00:00 15.6 0 Calma -- -- 0 954.8 -0.3 54
2019-04-02 12:00:00 13 0 Calma -- -- 0 955.5 0.5 74
2019-04-02 11:00:00 10.7 0 Calma -- -- 0 955.4 1.2 84
2019-04-02 10:00:00 8.5 0 Calma -- -- 0 955.1 1.3 92
2019-04-02 09:00:00 7.2 0 Calma -- -- 0 955 1.3 97
2019-04-02 08:00:00 6.8 0 Calma -- -- 0 954.2 0.2 97
2019-04-02 07:00:00 8 0 Calma -- -- 0 953.8 -0.9 97
2019-04-02 06:00:00 8.2 0 Calma -- -- 0 953.7 -0.7 96
2019-04-02 05:00:00 8.8 0 Calma -- -- 0 954 -0.3 96
2019-04-02 04:00:00 9.5 0 Calma -- -- 0 954.7 0.2 97
2019-04-02 03:00:00 9.6 0 Calma -- -- 0 954.4 0 96
2019-04-02 02:00:00 9.8 0 Calma -- -- 0 954.3 0.5 96
2019-04-02 01:00:00 10.2 0 Calma -- -- 0 954.5 1.2 94
2019-04-02 00:00:00 10.1 0 Calma -- -- 0 954.4 1.6 92
2019-04-01 23:00:00 10 0 Calma -- -- 0 953.8 2.2 95
2019-04-01 22:00:00 10.4 0 Calma -- -- 0.9 953.3 2.4 92
2019-04-01 21:00:00 11 0 Calma 39 Sudoeste 0.1 952.8 1.8 83
2019-04-01 20:00:00 12.2 26 Sur 42 Sur 0 951.6 0.4 73
2019-04-01 19:00:00 16.4 0 Calma -- -- 0 950.9 -0.7 37
2019-04-01 18:00:00 17.5 0 Calma 0 Calma 0.2 951 -1 34
2019-04-01 17:00:00 18.4 0 Calma 17 Noroeste 0.2 951.2 -1.6 33
2019-04-01 16:00:00 16.7 2 Oeste 22 Sudoeste 0.5 951.6 -1.5 46
2019-04-01 15:00:00 15.6 0 Calma 11 Sudeste 0 952 -0.9 58
2019-04-01 14:00:00 12.4 0 Calma 9 Sudeste 0 952.8 0.4 74
2019-04-01 13:00:00 11.1 0 Calma -- -- 0 953.1 1.4 87
2019-04-01 12:00:00 10.2 0 Calma -- -- 0 952.9 1.6 89
2019-04-01 11:00:00 10.4 0 Calma -- -- 0 952.4 1.3 82
2019-04-01 10:00:00 9.1 0 Calma -- -- 0 951.7 1 88
2019-04-01 09:00:00 8.6 0 Calma -- -- 0 951.3 0.6 89
2019-04-01 08:00:00 8.2 0 Calma -- -- 0 951.1 0.1 90
2019-04-01 07:00:00 7.8 0 Calma -- -- 0 950.7 -0.2 90
2019-04-01 06:00:00 8.2 0 Calma -- -- 0 950.7 -0.3 91
2019-04-01 05:00:00 8.6 0 Calma -- -- 0 951 0 87
2019-04-01 04:00:00 8.8 0 Calma -- -- 0 950.9 -0.2 87
2019-04-01 03:00:00 9.4 0 Calma -- -- 0 951 -0.1 81
2019-04-01 02:00:00 10.2 0 Calma -- -- 0 951 0.3 74
2019-04-01 01:00:00 10.3 0 Calma -- -- 0 951.1 0.8 74
2019-04-01 00:00:00 10.6 0 Calma 7 Este 0 951.1 1.4 70
2019-03-31 23:00:00 10.8 0 Calma 0 Calma 0 950.7 1.4 67
2019-03-31 22:00:00 11.3 0 Calma -- -- 0 950.3 1.5 65
2019-03-31 21:00:00 11.4 2 Este 21 Nordeste 0 949.7 1.2 60
2019-03-31 20:00:00 13 4 Este 21 Este 0 949.3 0.4 50
2019-03-31 19:00:00 14.3 12 Este 26 Este 0 948.8 -0.4 45
2019-03-31 18:00:00 15.3 13 Este 29 Este 0 948.5 -1.2 41
2019-03-31 17:00:00 15.6 10 Este 26 Este 0 948.9 -1.8 42
2019-03-31 16:00:00 15.9 10 Este 27 Nordeste 0 949.2 -2.1 42
2019-03-31 15:00:00 17 0 Calma -- -- 0 949.7 -1.9 36
2019-03-31 14:00:00 14.2 0 Calma 12 Este 0 950.7 -1 49
2019-03-31 13:00:00 14.1 0 Calma 0 Calma 0 951.3 -0.1 53
2019-03-31 12:00:00 13.2 0 Calma 17 Este 0.1 951.6 0.5 61
2019-03-31 11:00:00 12.1 0 Calma -- -- 0 951.7 1 64
2019-03-31 10:00:00 9.7 0 Calma 0 Calma 0 951.4 0.9 80
2019-03-31 09:00:00 8.1 0 Calma -- -- 0 951.1 0.4 88
2019-03-31 08:00:00 8.5 0 Calma -- -- 0 950.7 -0.6 83
2019-03-31 07:00:00 9 0 Calma 15 Sudeste 0.1 950.5 -1.8 84
2019-03-31 06:00:00 9.7 0 Calma 12 Sudeste 0 950.7 -2.1 95
2019-03-31 05:00:00 9.7 0 Calma 2 Este 0.2 951.3 -1.1 96
2019-03-31 03:00:00 10.1 0 Calma -- -- 0 952.8 -0.1 94
2019-03-31 01:00:00 10.2 0 Calma -- -- 0 952.4 -1.2 93
2019-03-31 00:00:00 10.2 0 Calma -- -- 0 952.9 -1.2 94
2019-03-30 23:00:00 10.8 0 Calma -- -- 0 952.9 0.6 85
2019-03-30 22:00:00 10.4 0 Calma 17 Sudoeste 0.9 953.6 1.6 91
2019-03-30 21:00:00 12.4 13 Sudoeste 43 Sudoeste 0.3 954.1 2.1 74
2019-03-30 20:00:00 17 0 Calma 18 Nordeste 0.1 952.3 0 33
2019-03-30 19:00:00 18 11 Nordeste 21 Nordeste 0 952 -0.7 31
2019-03-30 18:00:00 19.9 4 Sudeste 21 Sudeste 0 952 -1.7 29
2019-03-30 17:00:00 19.9 2 Sur 35 Este 0 952.3 -2.3 30
2019-03-30 16:00:00 20.8 10 Este 26 Sudeste 0 952.7 -3.2 30
2019-03-30 15:00:00 20.5 10 Nordeste 28 Este 0 953.7 -3.2 31
2019-03-30 14:00:00 20 6 Este 23 Nordeste 0 954.6 -2.8 33
2019-03-30 13:00:00 18.6 2 Nordeste 18 Este 0.1 955.9 -2 33
2019-03-30 12:00:00 16.1 0 Calma 13 Este 0 956.9 -1 40
2019-03-30 11:00:00 14.1 0 Calma 11 Este 0 957.4 -0.3 48
2019-03-30 10:00:00 9.7 0 Calma 5 Este 0 957.9 0.3 63
2019-03-30 09:00:00 7.3 0 Calma -- -- 0 957.9 0 67
2019-03-30 08:00:00 6.4 0 Calma -- -- 0 957.7 -0.4 72
2019-03-30 07:00:00 3.9 0 Calma -- -- 0 957.6 -0.7 74
2019-03-30 06:00:00 3.4 0 Calma -- -- 0 957.9 -0.2 74
2019-03-30 05:00:00 3.9 0 Calma -- -- 0 958.1 -0.2 69
2019-03-30 04:00:00 3.2 0 Calma -- -- 0 958.3 -0.2 66
2019-03-30 03:00:00 4.4 0 Calma -- -- 0 958.1 -0.4 59
2019-03-30 02:00:00 4.1 0 Calma -- -- 0 958.3 -0.1 59
2019-03-30 01:00:00 5.5 0 Calma -- -- 0 958.5 0.1 52
2019-03-30 00:00:00 6.4 0 Calma -- -- 0 958.5 0.5 43
2019-03-29 23:00:00 8.4 0 Calma -- -- 0 958.4 0.8 34
2019-03-29 22:00:00 10.4 0 Calma -- -- 0 958.4 0.9 27
2019-03-29 21:00:00 12.8 0 Calma -- -- 0 958 0.5 23
2019-03-29 20:00:00 15.1 0 Calma -- -- 0 957.6 0.2 18
2019-03-29 19:00:00 16.5 0 Calma 0 Calma 0 957.5 -0.6 16
2019-03-29 18:00:00 16.8 0 Calma 8 Norte 0 957.5 -1.3 15
2019-03-29 17:00:00 18.7 0 Calma 12 Este 0 957.4 -1.9 13
2019-03-29 16:00:00 20.9 0 Calma 14 Este 0.1 958.1 -2.1 13
2019-03-29 15:00:00 17.9 3 Este 16 Este 0 958.8 -1.9 15
2019-03-29 14:00:00 18.2 4 Este 18 Sur 0 959.3 -1.8 16
2019-03-29 13:00:00 17.5 10 Sudeste 23 Sur 0 960.2 -1.4 22
2019-03-29 12:00:00 16.2 9 Sudeste 22 Este 0 960.7 -1.2 27
2019-03-29 11:00:00 14.4 0 Calma 13 Sudeste 0 961.1 -0.7 33
2019-03-29 10:00:00 10.7 0 Calma 12 Sudeste 0 961.6 0.3 41
2019-03-29 09:00:00 7.5 0 Calma -- -- 0 961.9 0.9 50
2019-03-29 08:00:00 4 0 Calma -- -- 0 961.8 1.1 62
2019-03-29 07:00:00 1.9 0 Calma -- -- 0 961.3 0.6 64
2019-03-29 06:00:00 1.7 0 Calma -- -- 0 961 0.1 65
2019-03-29 05:00:00 2.7 0 Calma -- -- 0 960.7 -0.2 58
2019-03-29 04:00:00 4 0 Calma -- -- 0 960.7 -0.2 46
2019-03-29 03:00:00 5.6 0 Calma -- -- 0 960.9 -0.1 37
2019-03-29 02:00:00 8.1 0 Calma -- -- 0 960.9 -- 30
2019-03-29 01:00:00 9.3 0 Calma 0 Calma 0 960.9 -- 27
2019-03-29 00:00:00 10.9 0 Calma 0 Calma 0 961 0.6 25
2019-03-28 23:00:00 -- 0 Calma -- -- 0 -- -- --
2019-03-28 22:00:00 -- -- -- -- -- -- -- -- --
2019-03-28 21:00:00 14.7 0 Calma 7 Sudeste 0 960.4 1.3 18
2019-03-28 20:00:00 15.5 2 Este 33 Nordeste 0 959.7 0.5 17
2019-03-28 19:00:00 17.7 18 Nordeste 30 Nordeste 0 959.1 -0.8 16
2019-03-28 18:00:00 18.2 6 Nordeste 29 Nordeste 0 959.1 -1.8 15
2019-03-28 17:00:00 19.4 14 Este 33 Este 0.1 959.2 -2.3 14
2019-03-28 16:00:00 20.3 8 Sudeste 33 Este 0 959.9 -2.2 13
2019-03-28 15:00:00 19.5 17 Este 35 Este 0 960.9 -1.9 14
2019-03-28 14:00:00 18.3 19 Este 32 Este 0.1 961.5 -1.8 15
2019-03-28 13:00:00 19.3 11 Sudeste 27 Sudeste 0 962.1 -1.5 16
2019-03-28 12:00:00 16.2 17 Sudeste 36 Sudeste 0 962.8 -0.8 16
2019-03-28 11:00:00 15.4 8 Sudeste 20 Este 0 963.3 -0.1 24
2019-03-28 10:00:00 10.2 0 Calma 0 Calma 0 963.6 0.7 43
2019-03-28 09:00:00 6.2 0 Calma -- -- 0 963.6 1 56
2019-03-28 08:00:00 2.8 0 Calma -- -- 0 963.4 1.1 73
2019-03-28 07:00:00 0.3 0 Calma -- -- 0 962.9 0.9 77
2019-03-28 06:00:00 0.5 0 Calma -- -- 0 962.6 0.3 74
2019-03-28 05:00:00 1.7 0 Calma -- -- 0 962.3 0.2 65
2019-03-28 04:00:00 3.1 0 Calma -- -- 0 962 0 57
2019-03-28 03:00:00 3 0 Calma -- -- 0 962.3 0.8 55
2019-03-28 02:00:00 3.9 0 Calma -- -- 0 962.1 1.1 48
2019-03-28 01:00:00 6.1 0 Calma -- -- 0 962 1.3 40
2019-03-28 00:00:00 7 0 Calma -- -- 0 961.5 1.2 32
2019-03-27 23:00:00 7.1 0 Calma 0 Calma 0 961 1.3 27
2019-03-27 22:00:00 12.4 0 Calma 0 Calma 0 960.7 1.6 20
2019-03-27 21:00:00 12.8 0 Calma 2 Nordeste 0 960.3 1.7 18
2019-03-27 20:00:00 14.1 0 Calma 24 Nordeste 0 959.7 1.1 17
2019-03-27 19:00:00 16.1 16 Este 31 Este 0 959.1 0.3 16
2019-03-27 18:00:00 16.8 19 Este 44 Nordeste 0 958.6 -0.4 15
2019-03-27 17:00:00 17.7 20 Este 37 Este 0 958.6 -1.3 15
2019-03-27 16:00:00 18.1 17 Este 45 Nordeste 0 958.8 -1.8 17
2019-03-27 15:00:00 17.3 28 Nordeste 48 Nordeste 0 959 -1.8 18
2019-03-27 14:00:00 17.2 23 Nordeste 40 Nordeste 0 959.9 -0.8 22
2019-03-27 13:00:00 16.5 18 Este 35 Sudeste 0 960.6 0 23
2019-03-27 12:00:00 16.4 15 Este 30 Nordeste 0 960.8 0.7 25
2019-03-27 11:00:00 13.6 17 Este 27 Este 0 960.7 0.7 31
2019-03-27 10:00:00 12.8 4 Este 20 Este 0 960.6 1.6 34
2019-03-27 09:00:00 9.6 8 Este 15 Nordeste 0 960.1 1.6 45
2019-03-27 08:00:00 7.5 0 Calma -- -- 0 960 2.2 58
2019-03-27 07:00:00 6.1 0 Calma -- -- 0 959 1.7 64
2019-03-27 06:00:00 6.6 0 Calma 16 Este 0 958.5 0.9 62
2019-03-27 05:00:00 7.7 0 Calma 12 Este 0 957.8 0.5 58
2019-03-27 04:00:00 8.3 0 Calma 28 Este 0 957.3 0.1 56
2019-03-27 03:00:00 8.9 0 Calma 17 Nordeste 0 957.6 0.9 55
2019-03-27 02:00:00 10.6 6 Este 19 Este 0 957.3 1.2 47
2019-03-27 01:00:00 11.4 0 Calma 17 Nordeste 0 957.2 2 41
2019-03-27 00:00:00 12.6 0 Calma -- -- 0 956.7 2 37
2019-03-26 23:00:00 13.3 0 Calma 11 Sudeste 0 956.1 2.6 35
2019-03-26 22:00:00 14.7 0 Calma 28 Este 0 955.2 2.3 30
2019-03-26 21:00:00 15.9 18 Nordeste 36 Nordeste 0 954.7 2.4 27
2019-03-26 20:00:00 17.2 20 Nordeste 42 Nordeste 0.2 953.5 1.5 24
2019-03-26 19:00:00 19.1 19 Este 42 Este 0.1 952.9 0.9 21
2019-03-26 18:00:00 20.3 27 Este 45 Este 0.4 952.3 0.1 17
2019-03-26 17:00:00 21.5 26 Este 48 Nordeste 0.6 952 -1 16
2019-03-26 16:00:00 21.6 27 Nordeste 50 Nordeste 0.3 952 -1.7 16
2019-03-26 15:00:00 21.9 26 Nordeste 48 Nordeste 0.1 952.2 -1.8 17
2019-03-26 14:00:00 21.5 28 Este 46 Nordeste 0.9 953 -1.3 17
2019-03-26 13:00:00 21.7 17 Este 42 Nordeste 0 953.7 -0.9 18
2019-03-26 12:00:00 19.5 21 Este 38 Este 0 954 -0.4 21
2019-03-26 11:00:00 16.9 22 Este 39 Este 0 954.3 0 25
2019-03-26 10:00:00 14.9 0 Calma 2 Este 0 954.6 0.7 33
2019-03-26 09:00:00 9.3 0 Calma -- -- 0 954.4 0.9 39
2019-03-26 08:00:00 6.8 0 Calma -- -- 0 954.3 0.7 42
2019-03-26 07:00:00 6.3 0 Calma -- -- 0 953.9 -0.1 36
2019-03-26 06:00:00 8.3 0 Calma -- -- 0 953.5 -0.8 29
2019-03-26 05:00:00 9.9 0 Calma -- -- 0 953.6 -0.9 24
2019-03-26 04:00:00 11.1 0 Calma -- -- 0 954 -0.7 23
2019-03-26 03:00:00 12.3 0 Calma -- -- 0 954.3 -0.5 21
2019-03-26 02:00:00 13.4 0 Calma -- -- 0 954.5 -0.1 21
2019-03-26 01:00:00 12.7 0 Calma -- -- 0 954.7 -0.1 24
2019-03-26 00:00:00 12.1 0 Calma -- -- 0 954.8 0.5 23
2019-03-25 23:00:00 14.7 0 Calma -- -- 0 954.6 0.8 17
2019-03-25 22:00:00 15.1 0 Calma -- -- 0 954.8 1.1 16
2019-03-25 21:00:00 16 0 Calma -- -- 0.1 954.3 0.6 16
2019-03-25 20:00:00 17.1 0 Calma 18 Nordeste 0 953.8 -0.2 15
2019-03-25 19:00:00 19.9 13 Nordeste 24 Nordeste 0.5 953.7 -1.2 13
2019-03-25 18:00:00 20.3 9 Nordeste 33 Nordeste 0 953.7 -2 12
2019-03-25 17:00:00 21.4 14 Nordeste 28 Sudeste 0 954 -2.4 --
2019-03-25 16:00:00 22 12 Este 32 Este 0 954.9 -2.8 --
2019-03-25 15:00:00 21.8 14 Este 34 Nordeste 0.1 955.7 -2.9 --
2019-03-25 14:00:00 21.2 16 Nordeste 31 Este 0 956.4 -2.6 14
2019-03-25 13:00:00 20.8 14 Nordeste 42 Nordeste 0 957.7 -1.8 15
2019-03-25 12:00:00 19.1 14 Este 30 Este 0 958.6 -0.6 19
2019-03-25 11:00:00 17 0 Calma -- -- 0 959 -0.3 35
2019-03-25 10:00:00 11.3 0 Calma -- -- 0 959.5 0.5 47
2019-03-25 09:00:00 6.3 0 Calma -- -- 0 959.2 0.5 69
2019-03-25 08:00:00 5.1 0 Calma -- -- 0 959.3 0.5 86
2019-03-25 07:00:00 1.7 0 Calma -- -- 0 959 0 96
2019-03-25 06:00:00 2.2 0 Calma -- -- 0 958.7 -0.5 94
2019-03-25 05:00:00 4.1 0 Calma -- -- 0 958.8 -0.4 91
2019-03-25 04:00:00 4.5 0 Calma -- -- 0 959 -0.2 81
2019-03-25 03:00:00 6 0 Calma -- -- 0 959.2 0 78
2019-03-25 02:00:00 6.2 0 Calma -- -- 0 959.2 0.2 77
2019-03-25 01:00:00 7.5 0 Calma -- -- 0 959.2 0.2 72
2019-03-25 00:00:00 8.4 0 Calma -- -- 0 959.2 0.5 67